sensor_id;sensor_type;location;lat;lon;timestamp;temperature;humidity
41882;DHT22;27562;47.524;12.404;2022-07-06T00:02:21;15.00;99.90
41882;DHT22;27562;47.524;12.404;2022-07-06T00:04:47;15.00;99.90
41882;DHT22;27562;47.524;12.404;2022-07-06T00:07:12;15.00;99.90
41882;DHT22;27562;47.524;12.404;2022-07-06T00:09:39;15.00;99.90
41882;DHT22;27562;47.524;12.404;2022-07-06T00:12:05;15.00;99.90
41882;DHT22;27562;47.524;12.404;2022-07-06T00:14:31;15.00;99.90
41882;DHT22;27562;47.524;12.404;2022-07-06T00:16:56;15.10;99.90
41882;DHT22;27562;47.524;12.404;2022-07-06T00:19:22;15.10;99.90
41882;DHT22;27562;47.524;12.404;2022-07-06T00:21:47;15.10;99.90
41882;DHT22;27562;47.524;12.404;2022-07-06T00:24:13;14.90;99.90
41882;DHT22;27562;47.524;12.404;2022-07-06T00:26:38;14.80;99.90
41882;DHT22;27562;47.524;12.404;2022-07-06T00:29:04;14.70;99.90
41882;DHT22;27562;47.524;12.404;2022-07-06T00:31:29;14.80;99.90
41882;DHT22;27562;47.524;12.404;2022-07-06T00:33:55;14.70;99.90
41882;DHT22;27562;47.524;12.404;2022-07-06T00:36:20;14.70;99.90
41882;DHT22;27562;47.524;12.404;2022-07-06T00:38:46;14.70;99.90
41882;DHT22;27562;47.524;12.404;2022-07-06T00:41:12;14.70;99.90
41882;DHT22;27562;47.524;12.404;2022-07-06T00:43:54;14.60;99.90
41882;DHT22;27562;47.524;12.404;2022-07-06T00:46:32;14.60;99.90
41882;DHT22;27562;47.524;12.404;2022-07-06T00:48:58;14.70;99.90
41882;DHT22;27562;47.524;12.404;2022-07-06T00:51:25;14.60;99.90
41882;DHT22;27562;47.524;12.404;2022-07-06T00:53:51;14.60;99.90
41882;DHT22;27562;47.524;12.404;2022-07-06T00:56:17;14.60;99.90
41882;DHT22;27562;47.524;12.404;2022-07-06T00:58:43;14.60;99.90
41882;DHT22;27562;47.524;12.404;2022-07-06T01:01:08;14.60;99.90
41882;DHT22;27562;47.524;12.404;2022-07-06T01:03:34;14.60;99.90
41882;DHT22;27562;47.524;12.404;2022-07-06T01:06:00;14.50;99.90
41882;DHT22;27562;47.524;12.404;2022-07-06T01:08:25;14.50;99.90
41882;DHT22;27562;47.524;12.404;2022-07-06T01:10:51;14.50;99.90
41882;DHT22;27562;47.524;12.404;2022-07-06T01:13:17;14.50;99.90
41882;DHT22;27562;47.524;12.404;2022-07-06T01:15:42;14.60;99.90
41882;DHT22;27562;47.524;12.404;2022-07-06T01:18:09;14.60;99.90
41882;DHT22;27562;47.524;12.404;2022-07-06T01:20:34;14.50;99.90
41882;DHT22;27562;47.524;12.404;2022-07-06T01:23:00;14.50;99.90
41882;DHT22;27562;47.524;12.404;2022-07-06T01:25:26;14.50;99.90
41882;DHT22;27562;47.524;12.404;2022-07-06T01:27:51;14.50;99.90
41882;DHT22;27562;47.524;12.404;2022-07-06T01:30:17;14.50;99.90
41882;DHT22;27562;47.524;12.404;2022-07-06T01:32:43;14.50;99.90
41882;DHT22;27562;47.524;12.404;2022-07-06T01:35:11;14.50;99.90
41882;DHT22;27562;47.524;12.404;2022-07-06T01:37:36;14.50;99.90
41882;DHT22;27562;47.524;12.404;2022-07-06T01:40:03;14.50;99.90
41882;DHT22;27562;47.524;12.404;2022-07-06T01:42:28;14.50;99.90
41882;DHT22;27562;47.524;12.404;2022-07-06T01:44:54;14.50;99.90
41882;DHT22;27562;47.524;12.404;2022-07-06T01:47:20;14.50;99.90
41882;DHT22;27562;47.524;12.404;2022-07-06T01:49:46;14.50;99.90
41882;DHT22;27562;47.524;12.404;2022-07-06T01:52:11;14.50;99.90
41882;DHT22;27562;47.524;12.404;2022-07-06T01:54:37;14.50;99.90
41882;DHT22;27562;47.524;12.404;2022-07-06T01:57:03;14.40;99.90
41882;DHT22;27562;47.524;12.404;2022-07-06T01:59:28;14.40;99.90
41882;DHT22;27562;47.524;12.404;2022-07-06T02:01:54;14.40;99.90
41882;DHT22;27562;47.524;12.404;2022-07-06T02:04:19;14.40;99.90
41882;DHT22;27562;47.524;12.404;2022-07-06T02:06:45;14.40;99.90
41882;DHT22;27562;47.524;12.404;2022-07-06T02:09:10;14.50;99.90
41882;DHT22;27562;47.524;12.404;2022-07-06T02:11:36;14.50;99.90
41882;DHT22;27562;47.524;12.404;2022-07-06T02:14:01;14.50;99.90
41882;DHT22;27562;47.524;12.404;2022-07-06T02:16:27;14.50;99.90
41882;DHT22;27562;47.524;12.404;2022-07-06T02:18:52;14.50;99.90
41882;DHT22;27562;47.524;12.404;2022-07-06T02:21:18;14.50;99.90
41882;DHT22;27562;47.524;12.404;2022-07-06T02:23:43;14.50;99.90
41882;DHT22;27562;47.524;12.404;2022-07-06T02:26:09;14.50;99.90
41882;DHT22;27562;47.524;12.404;2022-07-06T02:28:35;14.40;99.90
41882;DHT22;27562;47.524;12.404;2022-07-06T02:31:00;14.30;99.90
41882;DHT22;27562;47.524;12.404;2022-07-06T02:33:26;14.20;99.90
41882;DHT22;27562;47.524;12.404;2022-07-06T02:35:52;14.20;99.90
41882;DHT22;27562;47.524;12.404;2022-07-06T02:38:18;14.30;99.90
41882;DHT22;27562;47.524;12.404;2022-07-06T02:40:43;14.30;99.90
41882;DHT22;27562;47.524;12.404;2022-07-06T02:43:09;14.40;99.90
41882;DHT22;27562;47.524;12.404;2022-07-06T02:45:34;14.40;99.90
41882;DHT22;27562;47.524;12.404;2022-07-06T02:48:00;14.40;99.90
41882;DHT22;27562;47.524;12.404;2022-07-06T02:50:25;14.50;99.90
41882;DHT22;27562;47.524;12.404;2022-07-06T02:52:51;14.50;99.90
41882;DHT22;27562;47.524;12.404;2022-07-06T02:55:16;14.40;99.90
41882;DHT22;27562;47.524;12.404;2022-07-06T02:57:42;14.40;99.90
41882;DHT22;27562;47.524;12.404;2022-07-06T03:00:08;14.30;99.90
41882;DHT22;27562;47.524;12.404;2022-07-06T03:02:34;14.30;99.90
41882;DHT22;27562;47.524;12.404;2022-07-06T03:05:00;14.30;99.90
41882;DHT22;27562;47.524;12.404;2022-07-06T03:07:26;14.30;99.90
41882;DHT22;27562;47.524;12.404;2022-07-06T03:09:51;14.30;99.90
41882;DHT22;27562;47.524;12.404;2022-07-06T03:12:17;14.30;99.90
41882;DHT22;27562;47.524;12.404;2022-07-06T03:14:42;14.30;99.90
41882;DHT22;27562;47.524;12.404;2022-07-06T03:17:08;14.40;99.90
41882;DHT22;27562;47.524;12.404;2022-07-06T03:19:33;14.40;99.90
41882;DHT22;27562;47.524;12.404;2022-07-06T03:21:59;14.40;99.90
41882;DHT22;27562;47.524;12.404;2022-07-06T03:24:25;14.40;99.90
41882;DHT22;27562;47.524;12.404;2022-07-06T03:26:50;14.40;99.90
41882;DHT22;27562;47.524;12.404;2022-07-06T03:29:16;14.40;99.90
41882;DHT22;27562;47.524;12.404;2022-07-06T03:31:41;14.40;99.90
41882;DHT22;27562;47.524;12.404;2022-07-06T03:34:07;14.30;99.90
41882;DHT22;27562;47.524;12.404;2022-07-06T03:36:32;14.30;99.90
41882;DHT22;27562;47.524;12.404;2022-07-06T03:38:58;14.30;99.90
41882;DHT22;27562;47.524;12.404;2022-07-06T03:41:23;14.30;99.90
41882;DHT22;27562;47.524;12.404;2022-07-06T03:43:49;14.40;99.90
41882;DHT22;27562;47.524;12.404;2022-07-06T03:46:15;14.40;99.90
41882;DHT22;27562;47.524;12.404;2022-07-06T03:48:40;14.40;99.90
41882;DHT22;27562;47.524;12.404;2022-07-06T03:51:06;14.30;99.90
41882;DHT22;27562;47.524;12.404;2022-07-06T03:53:32;14.20;99.90
41882;DHT22;27562;47.524;12.404;2022-07-06T03:55:58;14.20;99.90
41882;DHT22;27562;47.524;12.404;2022-07-06T03:58:42;14.20;99.90
41882;DHT22;27562;47.524;12.404;2022-07-06T04:01:07;14.20;99.90
41882;DHT22;27562;47.524;12.404;2022-07-06T04:03:33;14.20;99.90
41882;DHT22;27562;47.524;12.404;2022-07-06T04:05:59;14.20;99.90
41882;DHT22;27562;47.524;12.404;2022-07-06T04:08:24;14.20;99.90
41882;DHT22;27562;47.524;12.404;2022-07-06T04:10:50;14.20;99.90
41882;DHT22;27562;47.524;12.404;2022-07-06T04:13:15;14.20;99.90
41882;DHT22;27562;47.524;12.404;2022-07-06T04:15:41;14.20;99.90
41882;DHT22;27562;47.524;12.404;2022-07-06T04:18:06;14.20;99.90
41882;DHT22;27562;47.524;12.404;2022-07-06T04:20:32;14.30;99.90
41882;DHT22;27562;47.524;12.404;2022-07-06T04:22:57;14.30;99.90
41882;DHT22;27562;47.524;12.404;2022-07-06T04:25:23;14.30;99.90
41882;DHT22;27562;47.524;12.404;2022-07-06T04:27:49;14.40;99.90
41882;DHT22;27562;47.524;12.404;2022-07-06T04:30:15;14.30;99.90
41882;DHT22;27562;47.524;12.404;2022-07-06T04:32:40;14.30;99.90
41882;DHT22;27562;47.524;12.404;2022-07-06T04:35:06;14.30;99.90
41882;DHT22;27562;47.524;12.404;2022-07-06T04:37:32;14.30;99.90
41882;DHT22;27562;47.524;12.404;2022-07-06T04:39:57;14.20;99.90
41882;DHT22;27562;47.524;12.404;2022-07-06T04:42:23;14.20;99.90
41882;DHT22;27562;47.524;12.404;2022-07-06T04:44:49;14.30;99.90
41882;DHT22;27562;47.524;12.404;2022-07-06T04:47:14;14.30;99.90
41882;DHT22;27562;47.524;12.404;2022-07-06T04:49:40;14.40;99.90
41882;DHT22;27562;47.524;12.404;2022-07-06T04:52:05;14.40;99.90
41882;DHT22;27562;47.524;12.404;2022-07-06T04:54:31;14.50;99.90
41882;DHT22;27562;47.524;12.404;2022-07-06T04:56:57;14.50;99.90
41882;DHT22;27562;47.524;12.404;2022-07-06T04:59:22;14.60;99.90
41882;DHT22;27562;47.524;12.404;2022-07-06T05:01:48;14.60;99.90
41882;DHT22;27562;47.524;12.404;2022-07-06T05:04:14;14.60;99.90
41882;DHT22;27562;47.524;12.404;2022-07-06T05:06:39;14.60;99.90
41882;DHT22;27562;47.524;12.404;2022-07-06T05:09:05;14.60;99.90
41882;DHT22;27562;47.524;12.404;2022-07-06T05:11:31;14.60;99.90
41882;DHT22;27562;47.524;12.404;2022-07-06T05:13:57;14.60;99.90
41882;DHT22;27562;47.524;12.404;2022-07-06T05:16:22;14.60;99.90
41882;DHT22;27562;47.524;12.404;2022-07-06T05:18:48;14.70;99.90
41882;DHT22;27562;47.524;12.404;2022-07-06T05:21:13;14.60;99.90
41882;DHT22;27562;47.524;12.404;2022-07-06T05:23:39;14.60;99.90
41882;DHT22;27562;47.524;12.404;2022-07-06T05:26:05;14.70;99.90
41882;DHT22;27562;47.524;12.404;2022-07-06T05:28:30;14.70;99.90
41882;DHT22;27562;47.524;12.404;2022-07-06T05:30:56;14.70;99.90
41882;DHT22;27562;47.524;12.404;2022-07-06T05:33:21;14.80;99.90
41882;DHT22;27562;47.524;12.404;2022-07-06T05:35:47;14.80;99.90
41882;DHT22;27562;47.524;12.404;2022-07-06T05:38:13;14.90;99.90
41882;DHT22;27562;47.524;12.404;2022-07-06T05:40:38;14.90;99.90
41882;DHT22;27562;47.524;12.404;2022-07-06T05:43:04;15.00;99.90
41882;DHT22;27562;47.524;12.404;2022-07-06T05:45:29;15.10;99.90
41882;DHT22;27562;47.524;12.404;2022-07-06T05:47:55;15.10;99.90
41882;DHT22;27562;47.524;12.404;2022-07-06T05:50:39;15.20;99.90
41882;DHT22;27562;47.524;12.404;2022-07-06T05:53:05;15.30;99.90
41882;DHT22;27562;47.524;12.404;2022-07-06T05:55:31;15.40;99.90
41882;DHT22;27562;47.524;12.404;2022-07-06T05:57:56;15.50;99.90
41882;DHT22;27562;47.524;12.404;2022-07-06T06:00:22;15.60;99.90
41882;DHT22;27562;47.524;12.404;2022-07-06T06:02:48;15.70;99.90
41882;DHT22;27562;47.524;12.404;2022-07-06T06:05:14;15.80;99.90
41882;DHT22;27562;47.524;12.404;2022-07-06T06:07:40;15.90;99.90
41882;DHT22;27562;47.524;12.404;2022-07-06T06:10:07;15.90;99.90
41882;DHT22;27562;47.524;12.404;2022-07-06T06:12:32;16.00;99.90
41882;DHT22;27562;47.524;12.404;2022-07-06T06:14:58;16.10;99.90
41882;DHT22;27562;47.524;12.404;2022-07-06T06:17:24;16.20;99.90
41882;DHT22;27562;47.524;12.404;2022-07-06T06:19:49;16.30;99.90
41882;DHT22;27562;47.524;12.404;2022-07-06T06:22:15;16.40;99.90
41882;DHT22;27562;47.524;12.404;2022-07-06T06:24:40;16.50;99.90
41882;DHT22;27562;47.524;12.404;2022-07-06T06:27:06;16.70;99.90
41882;DHT22;27562;47.524;12.404;2022-07-06T06:29:32;16.80;99.90
41882;DHT22;27562;47.524;12.404;2022-07-06T06:31:57;16.90;99.90
41882;DHT22;27562;47.524;12.404;2022-07-06T06:34:23;16.90;99.90
41882;DHT22;27562;47.524;12.404;2022-07-06T06:36:48;16.80;99.90
41882;DHT22;27562;47.524;12.404;2022-07-06T06:39:14;16.80;99.90
41882;DHT22;27562;47.524;12.404;2022-07-06T06:41:40;16.80;99.90
41882;DHT22;27562;47.524;12.404;2022-07-06T06:44:05;16.80;99.90
41882;DHT22;27562;47.524;12.404;2022-07-06T06:46:31;17.00;99.90
41882;DHT22;27562;47.524;12.404;2022-07-06T06:48:56;17.10;99.90
41882;DHT22;27562;47.524;12.404;2022-07-06T06:51:22;17.10;99.90
41882;DHT22;27562;47.524;12.404;2022-07-06T06:53:47;17.10;99.90
41882;DHT22;27562;47.524;12.404;2022-07-06T06:56:13;17.20;99.90
41882;DHT22;27562;47.524;12.404;2022-07-06T06:58:38;17.20;99.90
41882;DHT22;27562;47.524;12.404;2022-07-06T07:01:04;17.10;99.90
41882;DHT22;27562;47.524;12.404;2022-07-06T07:03:30;17.10;99.90
41882;DHT22;27562;47.524;12.404;2022-07-06T07:05:56;17.20;99.90
41882;DHT22;27562;47.524;12.404;2022-07-06T07:08:21;17.40;99.90
41882;DHT22;27562;47.524;12.404;2022-07-06T07:10:47;17.50;99.90
41882;DHT22;27562;47.524;12.404;2022-07-06T07:13:12;17.70;99.90
41882;DHT22;27562;47.524;12.404;2022-07-06T07:15:38;17.80;99.90
41882;DHT22;27562;47.524;12.404;2022-07-06T07:18:03;18.00;99.90
41882;DHT22;27562;47.524;12.404;2022-07-06T07:20:29;18.20;99.90
41882;DHT22;27562;47.524;12.404;2022-07-06T07:22:55;18.30;99.90
41882;DHT22;27562;47.524;12.404;2022-07-06T07:25:21;18.40;99.90
41882;DHT22;27562;47.524;12.404;2022-07-06T07:27:47;18.40;99.90
41882;DHT22;27562;47.524;12.404;2022-07-06T07:30:13;18.40;99.90
41882;DHT22;27562;47.524;12.404;2022-07-06T07:32:38;18.60;99.90
41882;DHT22;27562;47.524;12.404;2022-07-06T07:35:06;18.80;99.90
41882;DHT22;27562;47.524;12.404;2022-07-06T07:37:31;18.90;99.90
41882;DHT22;27562;47.524;12.404;2022-07-06T07:39:57;19.20;99.90
41882;DHT22;27562;47.524;12.404;2022-07-06T07:42:23;19.40;99.90
41882;DHT22;27562;47.524;12.404;2022-07-06T07:44:48;19.50;99.90
41882;DHT22;27562;47.524;12.404;2022-07-06T07:47:14;19.60;99.90
41882;DHT22;27562;47.524;12.404;2022-07-06T07:49:40;19.60;99.90
41882;DHT22;27562;47.524;12.404;2022-07-06T07:52:05;19.70;99.90
41882;DHT22;27562;47.524;12.404;2022-07-06T07:54:31;19.90;99.90
41882;DHT22;27562;47.524;12.404;2022-07-06T07:56:56;20.00;99.90
41882;DHT22;27562;47.524;12.404;2022-07-06T07:59:22;19.90;99.90
41882;DHT22;27562;47.524;12.404;2022-07-06T08:01:48;19.90;99.90
41882;DHT22;27562;47.524;12.404;2022-07-06T08:04:14;20.00;99.90
41882;DHT22;27562;47.524;12.404;2022-07-06T08:06:39;20.10;99.90
41882;DHT22;27562;47.524;12.404;2022-07-06T08:09:05;20.00;99.90
41882;DHT22;27562;47.524;12.404;2022-07-06T08:11:35;20.00;99.90
41882;DHT22;27562;47.524;12.404;2022-07-06T08:14:01;20.10;99.90
41882;DHT22;27562;47.524;12.404;2022-07-06T08:16:27;20.10;99.90
41882;DHT22;27562;47.524;12.404;2022-07-06T08:18:52;20.10;99.90
41882;DHT22;27562;47.524;12.404;2022-07-06T08:21:18;20.20;99.90
41882;DHT22;27562;47.524;12.404;2022-07-06T08:23:44;20.20;99.90
41882;DHT22;27562;47.524;12.404;2022-07-06T08:26:09;20.30;99.90
41882;DHT22;27562;47.524;12.404;2022-07-06T08:28:35;20.40;99.90
41882;DHT22;27562;47.524;12.404;2022-07-06T08:31:00;20.60;99.90
41882;DHT22;27562;47.524;12.404;2022-07-06T08:33:26;20.80;99.90
41882;DHT22;27562;47.524;12.404;2022-07-06T08:35:51;20.80;99.90
41882;DHT22;27562;47.524;12.404;2022-07-06T08:38:17;20.80;99.50
41882;DHT22;27562;47.524;12.404;2022-07-06T08:40:43;20.70;97.50
41882;DHT22;27562;47.524;12.404;2022-07-06T08:43:10;20.80;97.90
41882;DHT22;27562;47.524;12.404;2022-07-06T08:45:35;20.70;97.40
41882;DHT22;27562;47.524;12.404;2022-07-06T08:48:05;20.70;99.90
41882;DHT22;27562;47.524;12.404;2022-07-06T08:50:32;20.70;99.20
41882;DHT22;27562;47.524;12.404;2022-07-06T08:52:57;20.60;99.90
41882;DHT22;27562;47.524;12.404;2022-07-06T08:55:24;20.60;99.90
41882;DHT22;27562;47.524;12.404;2022-07-06T08:57:50;20.60;99.90
41882;DHT22;27562;47.524;12.404;2022-07-06T09:00:16;20.60;99.90
41882;DHT22;27562;47.524;12.404;2022-07-06T09:02:42;20.50;99.90
41882;DHT22;27562;47.524;12.404;2022-07-06T09:05:08;20.40;99.90
41882;DHT22;27562;47.524;12.404;2022-07-06T09:07:34;20.50;99.90
41882;DHT22;27562;47.524;12.404;2022-07-06T09:10:00;20.40;99.90
41882;DHT22;27562;47.524;12.404;2022-07-06T09:12:27;20.60;99.90
41882;DHT22;27562;47.524;12.404;2022-07-06T09:14:56;20.80;99.90
41882;DHT22;27562;47.524;12.404;2022-07-06T09:17:24;21.00;99.90
41882;DHT22;27562;47.524;12.404;2022-07-06T09:19:50;21.40;98.50
41882;DHT22;27562;47.524;12.404;2022-07-06T09:22:28;21.70;96.60
41882;DHT22;27562;47.524;12.404;2022-07-06T09:25:05;21.90;96.00
41882;DHT22;27562;47.524;12.404;2022-07-06T09:27:31;21.90;95.30
41882;DHT22;27562;47.524;12.404;2022-07-06T09:30:01;21.80;94.20
41882;DHT22;27562;47.524;12.404;2022-07-06T09:32:27;21.70;94.50
41882;DHT22;27562;47.524;12.404;2022-07-06T09:34:52;21.60;94.00
41882;DHT22;27562;47.524;12.404;2022-07-06T09:37:19;21.50;94.50
41882;DHT22;27562;47.524;12.404;2022-07-06T09:39:46;21.50;94.30
41882;DHT22;27562;47.524;12.404;2022-07-06T09:42:12;21.60;93.90
41882;DHT22;27562;47.524;12.404;2022-07-06T09:44:38;21.80;93.00
41882;DHT22;27562;47.524;12.404;2022-07-06T09:47:05;22.10;93.00
41882;DHT22;27562;47.524;12.404;2022-07-06T09:49:31;22.30;93.10
41882;DHT22;27562;47.524;12.404;2022-07-06T09:52:00;22.50;92.70
41882;DHT22;27562;47.524;12.404;2022-07-06T09:54:26;22.40;90.90
41882;DHT22;27562;47.524;12.404;2022-07-06T09:56:52;22.30;91.60
41882;DHT22;27562;47.524;12.404;2022-07-06T09:59:19;22.10;92.10
41882;DHT22;27562;47.524;12.404;2022-07-06T10:01:46;22.00;92.50
41882;DHT22;27562;47.524;12.404;2022-07-06T10:04:12;21.80;93.30
41882;DHT22;27562;47.524;12.404;2022-07-06T10:06:39;21.80;94.20
41882;DHT22;27562;47.524;12.404;2022-07-06T10:09:05;21.90;95.00
41882;DHT22;27562;47.524;12.404;2022-07-06T10:11:32;21.90;94.10
41882;DHT22;27562;47.524;12.404;2022-07-06T10:13:59;22.00;95.20
41882;DHT22;27562;47.524;12.404;2022-07-06T10:16:26;22.00;93.20
41882;DHT22;27562;47.524;12.404;2022-07-06T10:18:53;22.10;92.90
41882;DHT22;27562;47.524;12.404;2022-07-06T10:21:20;22.30;93.00
41882;DHT22;27562;47.524;12.404;2022-07-06T10:23:46;22.60;93.40
41882;DHT22;27562;47.524;12.404;2022-07-06T10:26:12;22.90;90.10
41882;DHT22;27562;47.524;12.404;2022-07-06T10:28:39;23.30;90.30
41882;DHT22;27562;47.524;12.404;2022-07-06T10:31:05;23.60;86.70
41882;DHT22;27562;47.524;12.404;2022-07-06T10:33:31;23.80;84.70
41882;DHT22;27562;47.524;12.404;2022-07-06T10:35:58;23.70;81.00
41882;DHT22;27562;47.524;12.404;2022-07-06T10:38:33;23.50;81.00
41882;DHT22;27562;47.524;12.404;2022-07-06T10:41:02;23.30;77.10
41882;DHT22;27562;47.524;12.404;2022-07-06T10:43:32;22.90;78.90
41882;DHT22;27562;47.524;12.404;2022-07-06T10:45:58;22.70;78.50
41882;DHT22;27562;47.524;12.404;2022-07-06T10:48:23;22.60;77.60
41882;DHT22;27562;47.524;12.404;2022-07-06T10:50:51;22.40;77.90
41882;DHT22;27562;47.524;12.404;2022-07-06T10:53:19;22.30;78.60
41882;DHT22;27562;47.524;12.404;2022-07-06T10:55:46;22.30;78.30
41882;DHT22;27562;47.524;12.404;2022-07-06T10:58:13;22.20;77.00
41882;DHT22;27562;47.524;12.404;2022-07-06T11:00:52;22.20;76.10
41882;DHT22;27562;47.524;12.404;2022-07-06T11:06:00;22.20;76.40
41882;DHT22;27562;47.524;12.404;2022-07-06T11:13:58;23.50;79.10
41882;DHT22;27562;47.524;12.404;2022-07-06T11:16:27;23.70;78.10
41882;DHT22;27562;47.524;12.404;2022-07-06T11:19:00;24.00;76.50
41882;DHT22;27562;47.524;12.404;2022-07-06T11:21:33;24.10;74.40
41882;DHT22;27562;47.524;12.404;2022-07-06T11:24:00;24.00;73.80
41882;DHT22;27562;47.524;12.404;2022-07-06T11:26:25;23.80;74.30
41882;DHT22;27562;47.524;12.404;2022-07-06T11:28:52;23.70;72.00
41882;DHT22;27562;47.524;12.404;2022-07-06T11:31:18;23.80;72.30
41882;DHT22;27562;47.524;12.404;2022-07-06T11:33:46;24.20;72.90
41882;DHT22;27562;47.524;12.404;2022-07-06T11:36:13;24.50;70.40
41882;DHT22;27562;47.524;12.404;2022-07-06T11:38:39;24.60;68.30
41882;DHT22;27562;47.524;12.404;2022-07-06T11:41:04;24.70;67.40
41882;DHT22;27562;47.524;12.404;2022-07-06T11:43:30;24.80;66.40
41882;DHT22;27562;47.524;12.404;2022-07-06T11:45:55;24.80;66.70
41882;DHT22;27562;47.524;12.404;2022-07-06T11:48:21;24.80;65.90
41882;DHT22;27562;47.524;12.404;2022-07-06T11:51:02;24.60;67.10
41882;DHT22;27562;47.524;12.404;2022-07-06T11:53:28;24.60;66.00
41882;DHT22;27562;47.524;12.404;2022-07-06T11:55:54;24.70;69.80
41882;DHT22;27562;47.524;12.404;2022-07-06T11:58:20;24.60;66.60
41882;DHT22;27562;47.524;12.404;2022-07-06T12:01:02;24.40;66.00
41882;DHT22;27562;47.524;12.404;2022-07-06T12:03:28;24.20;67.30
41882;DHT22;27562;47.524;12.404;2022-07-06T12:05:54;24.10;70.10
41882;DHT22;27562;47.524;12.404;2022-07-06T12:08:19;24.20;68.10
41882;DHT22;27562;47.524;12.404;2022-07-06T12:10:45;24.20;70.90
41882;DHT22;27562;47.524;12.404;2022-07-06T12:13:10;24.40;70.00
41882;DHT22;27562;47.524;12.404;2022-07-06T12:15:36;24.40;65.90
41882;DHT22;27562;47.524;12.404;2022-07-06T12:18:01;24.40;67.50
41882;DHT22;27562;47.524;12.404;2022-07-06T12:20:27;24.50;67.40
41882;DHT22;27562;47.524;12.404;2022-07-06T12:23:02;24.60;68.70
41882;DHT22;27562;47.524;12.404;2022-07-06T12:27:56;24.60;70.30
41882;DHT22;27562;47.524;12.404;2022-07-06T12:30:22;24.60;69.30
41882;DHT22;27562;47.524;12.404;2022-07-06T12:33:10;24.40;67.20
41882;DHT22;27562;47.524;12.404;2022-07-06T12:35:33;24.30;69.10
41882;DHT22;27562;47.524;12.404;2022-07-06T12:37:59;24.20;68.40
41882;DHT22;27562;47.524;12.404;2022-07-06T12:40:26;24.30;68.50
41882;DHT22;27562;47.524;12.404;2022-07-06T12:42:53;24.60;68.40
41882;DHT22;27562;47.524;12.404;2022-07-06T12:45:18;24.80;67.40
41882;DHT22;27562;47.524;12.404;2022-07-06T12:48:00;25.00;67.50
41882;DHT22;27562;47.524;12.404;2022-07-06T12:50:33;25.20;67.40
41882;DHT22;27562;47.524;12.404;2022-07-06T12:52:59;25.30;64.30
41882;DHT22;27562;47.524;12.404;2022-07-06T12:55:26;25.40;61.70
41882;DHT22;27562;47.524;12.404;2022-07-06T12:57:52;25.20;64.50
41882;DHT22;27562;47.524;12.404;2022-07-06T13:00:18;25.00;64.00
41882;DHT22;27562;47.524;12.404;2022-07-06T13:02:45;25.10;64.50
41882;DHT22;27562;47.524;12.404;2022-07-06T13:05:11;24.90;64.50
41882;DHT22;27562;47.524;12.404;2022-07-06T13:07:38;24.90;64.10
41882;DHT22;27562;47.524;12.404;2022-07-06T13:10:08;24.90;63.70
41882;DHT22;27562;47.524;12.404;2022-07-06T13:12:34;24.90;64.70
41882;DHT22;27562;47.524;12.404;2022-07-06T13:14:59;25.10;64.10
41882;DHT22;27562;47.524;12.404;2022-07-06T13:17:25;25.40;66.10
41882;DHT22;27562;47.524;12.404;2022-07-06T13:19:51;25.50;62.10
41882;DHT22;27562;47.524;12.404;2022-07-06T13:22:16;25.20;62.00
41882;DHT22;27562;47.524;12.404;2022-07-06T13:24:42;25.00;62.00
41882;DHT22;27562;47.524;12.404;2022-07-06T13:27:08;25.10;65.80
41882;DHT22;27562;47.524;12.404;2022-07-06T13:29:34;25.10;62.60
41882;DHT22;27562;47.524;12.404;2022-07-06T13:31:59;25.20;61.60
41882;DHT22;27562;47.524;12.404;2022-07-06T13:34:25;25.30;63.10
41882;DHT22;27562;47.524;12.404;2022-07-06T13:36:51;25.40;61.20
41882;DHT22;27562;47.524;12.404;2022-07-06T13:39:16;25.50;62.30
41882;DHT22;27562;47.524;12.404;2022-07-06T13:41:42;25.50;61.10
41882;DHT22;27562;47.524;12.404;2022-07-06T13:44:08;25.50;60.50
41882;DHT22;27562;47.524;12.404;2022-07-06T13:46:34;25.60;61.60
41882;DHT22;27562;47.524;12.404;2022-07-06T13:49:02;25.70;62.60
41882;DHT22;27562;47.524;12.404;2022-07-06T13:51:28;25.80;60.00
41882;DHT22;27562;47.524;12.404;2022-07-06T13:53:54;25.90;59.10
41882;DHT22;27562;47.524;12.404;2022-07-06T13:56:19;25.80;58.80
41882;DHT22;27562;47.524;12.404;2022-07-06T13:58:45;25.60;60.20
41882;DHT22;27562;47.524;12.404;2022-07-06T14:01:11;25.30;60.00
41882;DHT22;27562;47.524;12.404;2022-07-06T14:03:36;25.00;59.70
41882;DHT22;27562;47.524;12.404;2022-07-06T14:06:04;24.90;60.40
41882;DHT22;27562;47.524;12.404;2022-07-06T14:08:30;24.90;58.90
41882;DHT22;27562;47.524;12.404;2022-07-06T14:10:56;24.90;58.80
41882;DHT22;27562;47.524;12.404;2022-07-06T14:13:22;24.90;59.70
41882;DHT22;27562;47.524;12.404;2022-07-06T14:15:47;25.10;62.40
41882;DHT22;27562;47.524;12.404;2022-07-06T14:18:13;25.40;61.70
41882;DHT22;27562;47.524;12.404;2022-07-06T14:20:40;25.70;58.00
41882;DHT22;27562;47.524;12.404;2022-07-06T14:23:05;25.80;59.20
41882;DHT22;27562;47.524;12.404;2022-07-06T14:25:31;25.90;58.90
41882;DHT22;27562;47.524;12.404;2022-07-06T14:27:57;26.00;58.40
41882;DHT22;27562;47.524;12.404;2022-07-06T14:30:23;26.20;58.00
41882;DHT22;27562;47.524;12.404;2022-07-06T14:32:48;26.20;58.00
41882;DHT22;27562;47.524;12.404;2022-07-06T14:35:14;26.10;58.60
41882;DHT22;27562;47.524;12.404;2022-07-06T14:37:39;26.10;59.80
41882;DHT22;27562;47.524;12.404;2022-07-06T14:40:05;26.00;58.60
41882;DHT22;27562;47.524;12.404;2022-07-06T14:42:31;25.80;58.30
41882;DHT22;27562;47.524;12.404;2022-07-06T14:44:56;25.80;59.70
41882;DHT22;27562;47.524;12.404;2022-07-06T14:47:22;25.60;57.40
41882;DHT22;27562;47.524;12.404;2022-07-06T14:49:47;25.40;57.90
41882;DHT22;27562;47.524;12.404;2022-07-06T14:52:13;25.30;60.90
41882;DHT22;27562;47.524;12.404;2022-07-06T14:54:38;25.40;58.40
41882;DHT22;27562;47.524;12.404;2022-07-06T14:57:04;25.40;58.80
41882;DHT22;27562;47.524;12.404;2022-07-06T14:59:30;25.40;58.30
41882;DHT22;27562;47.524;12.404;2022-07-06T15:01:56;25.30;58.80
41882;DHT22;27562;47.524;12.404;2022-07-06T15:04:22;25.10;58.80
41882;DHT22;27562;47.524;12.404;2022-07-06T15:06:48;25.10;60.70
41882;DHT22;27562;47.524;12.404;2022-07-06T15:09:13;25.20;58.00
41882;DHT22;27562;47.524;12.404;2022-07-06T15:11:39;25.30;59.10
41882;DHT22;27562;47.524;12.404;2022-07-06T15:14:05;25.40;57.70
41882;DHT22;27562;47.524;12.404;2022-07-06T15:16:30;25.40;57.20
41882;DHT22;27562;47.524;12.404;2022-07-06T15:18:56;25.10;57.70
41882;DHT22;27562;47.524;12.404;2022-07-06T15:21:21;24.90;56.90